White Point — IBAE — position and weather

sailwx.info

Track history (hours):
 
Tides and Currents Weather Stations Pressure Air Temp Water Temp Dewpoint Dewpoint Depression Visibility Wind Speed Wind Dir Waves Ship Positions

White Point

Last reported at 2016-Jul-25 11:05 UTC. Time now 2016-Jul-28 04:44 UTC.
Position N 43°26' E 014°32'.

Length 183 m; draft 1.1 m.

Type: Ship (hazmat cat D). MMSI: 247087400.

Date/timePositionNaut miles runAvg speedWind from/ knotsBaromVisibWave heightAir tempDewpointWater temp
2016-Jul-25 11:05N 43°26' E 014°32'77 1.8
2016-Jul-23 17:15N 42°15' E 015°09'266 9.2
2016-Jul-22 12:31N 37°51' E 015°50'1611.4
2016-Jul-22 11:06N 38°02' E 015°35'1810.7
2016-Jul-22 09:25N 38°20' E 015°32'1213.7
2016-Jul-22 08:33N 38°15' E 015°18'3 3.0
2016-Jul-22 07:32N 38°13' E 015°16'0 0.0
2016-Jul-22 04:32N 38°13' E 015°16'0 0.0
2016-Jul-22 03:32N 38°13' E 015°16'0 0.0
2016-Jul-22 02:32N 38°13' E 015°16'0 0.0
2016-Jul-22 01:32N 38°13' E 015°16'0 0.0
2016-Jul-22 00:32N 38°13' E 015°16'0 0.0
2016-Jul-21 23:32N 38°13' E 015°16'0 0.0
2016-Jul-21 22:32N 38°13' E 015°16'0 0.0
2016-Jul-21 21:32N 38°13' E 015°16'0 0.0
2016-Jul-21 20:32N 38°13' E 015°16'0 0.0
2016-Jul-21 19:32N 38°13' E 015°16'0 0.0
2016-Jul-21 18:32N 38°13' E 015°16'0 0.0
2016-Jul-21 17:32N 38°13' E 015°16'0 0.0
2016-Jul-21 16:32N 38°13' E 015°16'0 0.0
2016-Jul-21 15:32N 38°13' E 015°16'0 0.0
2016-Jul-21 14:32N 38°13' E 015°16'0 0.0
2016-Jul-21 13:32N 38°13' E 015°16'1 1.5
2016-Jul-21 12:33N 38°13' E 015°18'0 0.1
2016-Jul-21 11:33N 38°13' E 015°18'0 0.0
2016-Jul-21 10:33N 38°13' E 015°18'0 0.1
2016-Jul-21 09:33N 38°13' E 015°18'0 0.0
2016-Jul-21 08:33N 38°13' E 015°18'0 0.0
2016-Jul-21 07:33N 38°13' E 015°18'0 0.1
2016-Jul-21 06:33N 38°13' E 015°18'0 0.1
2016-Jul-21 05:33N 38°13' E 015°18'0 0.0
2016-Jul-21 04:33N 38°13' E 015°18'0 0.0
2016-Jul-21 00:29N 38°13' E 015°18'0 0.0
2016-Jul-20 23:29N 38°13' E 015°18'0 0.0
2016-Jul-20 22:31N 38°13' E 015°18'0 0.0
2016-Jul-20 21:29N 38°13' E 015°18'0 0.0
2016-Jul-20 20:27N 38°13' E 015°18'0 0.1
2016-Jul-20 19:33N 38°13' E 015°18'0 0.1
2016-Jul-20 18:33N 38°13' E 015°18'0 0.0
2016-Jul-20 17:33N 38°13' E 015°18'0 0.0
2016-Jul-20 16:33N 38°13' E 015°18'0 0.0
2016-Jul-20 15:33N 38°13' E 015°18'0 0.0
2016-Jul-20 14:33N 38°13' E 015°18'0 0.0
2016-Jul-20 13:33N 38°13' E 015°18'0 0.0
2016-Jul-20 12:33N 38°13' E 015°18'0 0.0
2016-Jul-20 11:33N 38°13' E 015°18'0 0.0
2016-Jul-20 10:33N 38°13' E 015°18'0 0.0
2016-Jul-20 09:33N 38°13' E 015°18'0 0.0
2016-Jul-20 08:33N 38°13' E 015°18'0 0.0
2016-Jul-20 07:33N 38°13' E 015°18'0 0.0
2016-Jul-20 06:34N 38°13' E 015°18'0 0.0
2016-Jul-20 05:33N 38°13' E 015°18'0 0.0
2016-Jul-20 04:33N 38°13' E 015°18'0 0.0
2016-Jul-20 03:33N 38°13' E 015°18'0 0.0
2016-Jul-20 02:33N 38°13' E 015°18'0 0.0
2016-Jul-20 01:33N 38°13' E 015°18'0 0.0
2016-Jul-20 00:33N 38°13' E 015°18'0 0.0
2016-Jul-19 23:33N 38°13' E 015°18'0 0.0
2016-Jul-19 22:33N 38°13' E 015°18'0 0.0
2016-Jul-19 21:33N 38°13' E 015°18'0 0.0
2016-Jul-19 20:33N 38°13' E 015°18'0 0.0
2016-Jul-19 19:33N 38°13' E 015°18'0 0.0
2016-Jul-19 18:33N 38°13' E 015°18'0 0.0
2016-Jul-19 17:33N 38°13' E 015°18'0 0.0
2016-Jul-19 16:33N 38°13' E 015°18'0 0.0
2016-Jul-19 15:33N 38°13' E 015°18'0 0.0
2016-Jul-19 14:33N 38°13' E 015°18'0 0.0
2016-Jul-19 13:33N 38°13' E 015°18'0 0.0
2016-Jul-19 12:33N 38°13' E 015°18'0 0.0
2016-Jul-19 11:33N 38°13' E 015°18'0 0.0
2016-Jul-19 10:33N 38°13' E 015°18'0 0.0
2016-Jul-19 09:33N 38°13' E 015°18'0 0.0
2016-Jul-19 08:33N 38°13' E 015°18'0 0.0
2016-Jul-19 07:33N 38°13' E 015°18'0 0.0
2016-Jul-19 04:33N 38°13' E 015°18'0 0.0
2016-Jul-19 03:33N 38°13' E 015°18'0 0.0
2016-Jul-19 02:33N 38°13' E 015°18'0 0.0
2016-Jul-19 01:33N 38°13' E 015°18'0 0.0
2016-Jul-19 00:33N 38°13' E 015°18'0 0.0
2016-Jul-18 23:33N 38°13' E 015°18'0 0.0
2016-Jul-18 22:33N 38°13' E 015°18'0 0.0
2016-Jul-18 21:33N 38°13' E 015°18'0 0.0
2016-Jul-18 20:33N 38°13' E 015°18'0 0.0
2016-Jul-18 19:33N 38°13' E 015°18'2 2.4
2016-Jul-18 18:33N 38°15' E 015°18'1313.1
2016-Jul-18 17:33N 38°28' E 015°17'1414.3
2016-Jul-18 16:33N 38°43' E 015°17'1413.9
2016-Jul-18 15:30N 38°57' E 015°12'8313.9
2016-Jul-18 09:30N 40°05' E 014°11'1414.0
2016-Jul-18 08:30N 40°17' E 014°00'1314.2
2016-Jul-18 07:33N 40°29' E 013°52'1414.0
2016-Jul-18 06:33N 40°42' E 013°45'1413.6
2016-Jul-18 05:33N 40°55' E 013°42'161 4.2
2016-Jul-16 15:28N 42°20' E 010°38'1212.9
2016-Jul-16 14:33N 42°27' E 010°26'1913.1
2016-Jul-16 13:09N 42°40' E 010°08'812.6
2016-Jul-16 12:33N 42°46' E 010°02'1913.3
2016-Jul-16 11:06N 43°06' E 010°06'813.7
2016-Jul-16 10:33N 43°13' E 010°07'1414.1
2016-Jul-16 09:34N 43°27' E 010°10'9 8.5
2016-Jul-16 08:31N 43°34' E 010°18'0 0.0
2016-Jul-16 07:28N 43°34' E 010°18'0 0.0
2016-Jul-16 06:31N 43°34' E 010°18'0 0.0
2016-Jul-16 04:28N 43°34' E 010°18'0 0.0
2016-Jul-16 03:31N 43°34' E 010°18'0 0.0
2016-Jul-16 02:31N 43°34' E 010°18'0 0.0
2016-Jul-16 01:31N 43°34' E 010°18'0 0.0
2016-Jul-16 00:31N 43°34' E 010°18'0 0.0
2016-Jul-15 23:31N 43°34' E 010°18'0 0.0
2016-Jul-15 22:31N 43°34' E 010°18'0 0.0
2016-Jul-15 21:31N 43°34' E 010°18'0 0.0
2016-Jul-15 20:31N 43°34' E 010°18'0 0.0
2016-Jul-15 19:31N 43°34' E 010°18'0 0.0
2016-Jul-15 18:31N 43°34' E 010°18'0 0.0
2016-Jul-15 17:31N 43°34' E 010°18'0 0.0
2016-Jul-15 16:31N 43°34' E 010°18'0 0.0
2016-Jul-15 15:31N 43°34' E 010°18'0 0.0
2016-Jul-15 14:31N 43°34' E 010°18'0 0.0
2016-Jul-15 13:31N 43°34' E 010°18'0 0.0
2016-Jul-15 12:31N 43°34' E 010°18'0 0.0
2016-Jul-15 11:31N 43°34' E 010°18'  
Track history (hours):
 
Tides and Currents Weather Stations Pressure Air Temp Water Temp Dewpoint Dewpoint Depression Visibility Wind Speed Wind Dir Waves Ship Positions

White Point

Last reported at 2016-Jul-25 11:05 UTC. Time now 2016-Jul-28 04:44 UTC.
Position N 43°26' E 014°32'.

Length 183 m; draft 1.1 m.

Type: Ship (hazmat cat D). MMSI: 247087400.

Date/timePositionNaut miles runAvg speedWind from/ knotsBaromVisibWave heightAir tempDewpointWater temp
2016-Jul-25 11:05N 43°26' E 014°32'77 1.8
2016-Jul-23 17:15N 42°15' E 015°09'266 9.2
2016-Jul-22 12:31N 37°51' E 015°50'1611.4
2016-Jul-22 11:06N 38°02' E 015°35'1810.7
2016-Jul-22 09:25N 38°20' E 015°32'1213.7
2016-Jul-22 08:33N 38°15' E 015°18'3 3.0
2016-Jul-22 07:32N 38°13' E 015°16'0 0.0
2016-Jul-22 04:32N 38°13' E 015°16'0 0.0
2016-Jul-22 03:32N 38°13' E 015°16'0 0.0
2016-Jul-22 02:32N 38°13' E 015°16'0 0.0
2016-Jul-22 01:32N 38°13' E 015°16'0 0.0
2016-Jul-22 00:32N 38°13' E 015°16'0 0.0
2016-Jul-21 23:32N 38°13' E 015°16'0 0.0
2016-Jul-21 22:32N 38°13' E 015°16'0 0.0
2016-Jul-21 21:32N 38°13' E 015°16'0 0.0
2016-Jul-21 20:32N 38°13' E 015°16'0 0.0
2016-Jul-21 19:32N 38°13' E 015°16'0 0.0
2016-Jul-21 18:32N 38°13' E 015°16'0 0.0
2016-Jul-21 17:32N 38°13' E 015°16'0 0.0
2016-Jul-21 16:32N 38°13' E 015°16'0 0.0
2016-Jul-21 15:32N 38°13' E 015°16'0 0.0
2016-Jul-21 14:32N 38°13' E 015°16'0 0.0
2016-Jul-21 13:32N 38°13' E 015°16'1 1.5
2016-Jul-21 12:33N 38°13' E 015°18'0 0.1
2016-Jul-21 11:33N 38°13' E 015°18'0 0.0
2016-Jul-21 10:33N 38°13' E 015°18'0 0.1
2016-Jul-21 09:33N 38°13' E 015°18'0 0.0
2016-Jul-21 08:33N 38°13' E 015°18'0 0.0
2016-Jul-21 07:33N 38°13' E 015°18'0 0.1
2016-Jul-21 06:33N 38°13' E 015°18'0 0.1
2016-Jul-21 05:33N 38°13' E 015°18'0 0.0
2016-Jul-21 04:33N 38°13' E 015°18'0 0.0
2016-Jul-21 00:29N 38°13' E 015°18'0 0.0
2016-Jul-20 23:29N 38°13' E 015°18'0 0.0
2016-Jul-20 22:31N 38°13' E 015°18'0 0.0
2016-Jul-20 21:29N 38°13' E 015°18'0 0.0
2016-Jul-20 20:27N 38°13' E 015°18'0 0.1
2016-Jul-20 19:33N 38°13' E 015°18'0 0.1
2016-Jul-20 18:33N 38°13' E 015°18'0 0.0
2016-Jul-20 17:33N 38°13' E 015°18'0 0.0
2016-Jul-20 16:33N 38°13' E 015°18'0 0.0
2016-Jul-20 15:33N 38°13' E 015°18'0 0.0
2016-Jul-20 14:33N 38°13' E 015°18'0 0.0
2016-Jul-20 13:33N 38°13' E 015°18'0 0.0
2016-Jul-20 12:33N 38°13' E 015°18'0 0.0
2016-Jul-20 11:33N 38°13' E 015°18'0 0.0
2016-Jul-20 10:33N 38°13' E 015°18'0 0.0
2016-Jul-20 09:33N 38°13' E 015°18'0 0.0
2016-Jul-20 08:33N 38°13' E 015°18'0 0.0
2016-Jul-20 07:33N 38°13' E 015°18'0 0.0
2016-Jul-20 06:34N 38°13' E 015°18'0 0.0
2016-Jul-20 05:33N 38°13' E 015°18'0 0.0
2016-Jul-20 04:33N 38°13' E 015°18'0 0.0
2016-Jul-20 03:33N 38°13' E 015°18'0 0.0
2016-Jul-20 02:33N 38°13' E 015°18'0 0.0
2016-Jul-20 01:33N 38°13' E 015°18'0 0.0
2016-Jul-20 00:33N 38°13' E 015°18'0 0.0
2016-Jul-19 23:33N 38°13' E 015°18'0 0.0
2016-Jul-19 22:33N 38°13' E 015°18'0 0.0
2016-Jul-19 21:33N 38°13' E 015°18'0 0.0
2016-Jul-19 20:33N 38°13' E 015°18'0 0.0
2016-Jul-19 19:33N 38°13' E 015°18'0 0.0
2016-Jul-19 18:33N 38°13' E 015°18'0 0.0
2016-Jul-19 17:33N 38°13' E 015°18'0 0.0
2016-Jul-19 16:33N 38°13' E 015°18'0 0.0
2016-Jul-19 15:33N 38°13' E 015°18'0 0.0
2016-Jul-19 14:33N 38°13' E 015°18'0 0.0
2016-Jul-19 13:33N 38°13' E 015°18'0 0.0
2016-Jul-19 12:33N 38°13' E 015°18'0 0.0
2016-Jul-19 11:33N 38°13' E 015°18'0 0.0
2016-Jul-19 10:33N 38°13' E 015°18'0 0.0
2016-Jul-19 09:33N 38°13' E 015°18'0 0.0
2016-Jul-19 08:33N 38°13' E 015°18'0 0.0
2016-Jul-19 07:33N 38°13' E 015°18'0 0.0
2016-Jul-19 04:33N 38°13' E 015°18'0 0.0
2016-Jul-19 03:33N 38°13' E 015°18'0 0.0
2016-Jul-19 02:33N 38°13' E 015°18'0 0.0
2016-Jul-19 01:33N 38°13' E 015°18'0 0.0
2016-Jul-19 00:33N 38°13' E 015°18'0 0.0
2016-Jul-18 23:33N 38°13' E 015°18'0 0.0
2016-Jul-18 22:33N 38°13' E 015°18'0 0.0
2016-Jul-18 21:33N 38°13' E 015°18'0 0.0
2016-Jul-18 20:33N 38°13' E 015°18'0 0.0
2016-Jul-18 19:33N 38°13' E 015°18'2 2.4
2016-Jul-18 18:33N 38°15' E 015°18'1313.1
2016-Jul-18 17:33N 38°28' E 015°17'1414.3
2016-Jul-18 16:33N 38°43' E 015°17'1413.9
2016-Jul-18 15:30N 38°57' E 015°12'8313.9
2016-Jul-18 09:30N 40°05' E 014°11'1414.0
2016-Jul-18 08:30N 40°17' E 014°00'1314.2
2016-Jul-18 07:33N 40°29' E 013°52'1414.0
2016-Jul-18 06:33N 40°42' E 013°45'1413.6
2016-Jul-18 05:33N 40°55' E 013°42'161 4.2
2016-Jul-16 15:28N 42°20' E 010°38'1212.9
2016-Jul-16 14:33N 42°27' E 010°26'1913.1
2016-Jul-16 13:09N 42°40' E 010°08'812.6
2016-Jul-16 12:33N 42°46' E 010°02'1913.3
2016-Jul-16 11:06N 43°06' E 010°06'813.7
2016-Jul-16 10:33N 43°13' E 010°07'1414.1
2016-Jul-16 09:34N 43°27' E 010°10'9 8.5
2016-Jul-16 08:31N 43°34' E 010°18'0 0.0
2016-Jul-16 07:28N 43°34' E 010°18'0 0.0
2016-Jul-16 06:31N 43°34' E 010°18'0 0.0
2016-Jul-16 04:28N 43°34' E 010°18'0 0.0
2016-Jul-16 03:31N 43°34' E 010°18'0 0.0
2016-Jul-16 02:31N 43°34' E 010°18'0 0.0
2016-Jul-16 01:31N 43°34' E 010°18'0 0.0
2016-Jul-16 00:31N 43°34' E 010°18'0 0.0
2016-Jul-15 23:31N 43°34' E 010°18'0 0.0
2016-Jul-15 22:31N 43°34' E 010°18'0 0.0
2016-Jul-15 21:31N 43°34' E 010°18'0 0.0
2016-Jul-15 20:31N 43°34' E 010°18'0 0.0
2016-Jul-15 19:31N 43°34' E 010°18'0 0.0
2016-Jul-15 18:31N 43°34' E 010°18'0 0.0
2016-Jul-15 17:31N 43°34' E 010°18'0 0.0
2016-Jul-15 16:31N 43°34' E 010°18'0 0.0
2016-Jul-15 15:31N 43°34' E 010°18'0 0.0
2016-Jul-15 14:31N 43°34' E 010°18'0 0.0
2016-Jul-15 13:31N 43°34' E 010°18'0 0.0
2016-Jul-15 12:31N 43°34' E 010°18'0 0.0
2016-Jul-15 11:31N 43°34' E 010°18'  

Dump ship's entire track history